Maran Castor — SXLH — position and weather

sailwx.info

Track history (hours):
 
Tides and Currents Weather Stations Pressure Air Temp Water Temp Dewpoint Dewpoint Depression Visibility Wind Speed Wind Dir Waves Ship Positions

Maran Castor

Last reported at 2017-Feb-11 17:21 UTC. Time now 2017-Feb-23 02:36 UTC.
Position N 01°15' E 104°02'.
Warning: this ship's position is 11 days out of date.

Length 332 m; draft 20.6 m.

Type: Tanker. MMSI: 239808000.

Date/timePositionNaut miles runAvg speedWind from/ knotsBaromVisibWave heightAir tempDewpointWater temp
2017-Feb-11 17:21N 01°15' E 104°02'3 3.5
2017-Feb-11 16:29N 01°14' E 103°59'6 6.5
2017-Feb-11 15:33N 01°13' E 103°54'8 7.9
2017-Feb-11 14:33N 01°09' E 103°47'8 7.9
2017-Feb-11 13:33N 01°04' E 103°40'8 7.9
2017-Feb-11 12:33N 01°06' E 103°33'7 7.4
2017-Feb-11 11:33N 01°10' E 103°27'10 9.2
2017-Feb-11 10:26N 01°16' E 103°18'5510.6
2017-Feb-11 05:12N 01°46' E 102°32'711.2
2017-Feb-11 04:33N 01°49' E 102°25'  
Track history (hours):
 
Tides and Currents Weather Stations Pressure Air Temp Water Temp Dewpoint Dewpoint Depression Visibility Wind Speed Wind Dir Waves Ship Positions

Maran Castor

Last reported at 2017-Feb-11 17:21 UTC. Time now 2017-Feb-23 02:36 UTC.
Position N 01°15' E 104°02'.
Warning: this ship's position is 11 days out of date.

Length 332 m; draft 20.6 m.

Type: Tanker. MMSI: 239808000.

Date/timePositionNaut miles runAvg speedWind from/ knotsBaromVisibWave heightAir tempDewpointWater temp
2017-Feb-11 17:21N 01°15' E 104°02'3 3.5
2017-Feb-11 16:29N 01°14' E 103°59'6 6.5
2017-Feb-11 15:33N 01°13' E 103°54'8 7.9
2017-Feb-11 14:33N 01°09' E 103°47'8 7.9
2017-Feb-11 13:33N 01°04' E 103°40'8 7.9
2017-Feb-11 12:33N 01°06' E 103°33'7 7.4
2017-Feb-11 11:33N 01°10' E 103°27'10 9.2
2017-Feb-11 10:26N 01°16' E 103°18'5510.6
2017-Feb-11 05:12N 01°46' E 102°32'711.2
2017-Feb-11 04:33N 01°49' E 102°25'  

Dump ship's entire track history